sensor_id;sensor_type;location;lat;lon;timestamp;P1;durP1;ratioP1;P2;durP2;ratioP2
42194;SDS011;27863;49.440;11.102;2023-07-24T00:02:34;4.47;;;3.95;;
42194;SDS011;27863;49.440;11.102;2023-07-24T00:05:35;4.68;;;3.80;;
42194;SDS011;27863;49.440;11.102;2023-07-24T00:08:37;4.50;;;4.03;;
42194;SDS011;27863;49.440;11.102;2023-07-24T00:11:38;11.60;;;5.75;;
42194;SDS011;27863;49.440;11.102;2023-07-24T00:14:38;5.88;;;5.20;;
42194;SDS011;27863;49.440;11.102;2023-07-24T00:17:39;4.97;;;4.05;;
42194;SDS011;27863;49.440;11.102;2023-07-24T00:20:39;6.45;;;5.15;;
42194;SDS011;27863;49.440;11.102;2023-07-24T00:23:40;5.97;;;5.03;;
42194;SDS011;27863;49.440;11.102;2023-07-24T00:26:40;7.80;;;5.55;;
42194;SDS011;27863;49.440;11.102;2023-07-24T00:29:41;6.25;;;5.65;;
42194;SDS011;27863;49.440;11.102;2023-07-24T00:32:41;5.70;;;5.07;;
42194;SDS011;27863;49.440;11.102;2023-07-24T00:35:42;6.10;;;5.10;;
42194;SDS011;27863;49.440;11.102;2023-07-24T00:38:42;6.18;;;5.57;;
42194;SDS011;27863;49.440;11.102;2023-07-24T00:41:43;7.03;;;5.07;;
42194;SDS011;27863;49.440;11.102;2023-07-24T00:44:43;5.18;;;4.68;;
42194;SDS011;27863;49.440;11.102;2023-07-24T00:47:44;6.35;;;5.70;;
42194;SDS011;27863;49.440;11.102;2023-07-24T00:50:45;6.57;;;5.35;;
42194;SDS011;27863;49.440;11.102;2023-07-24T00:53:46;5.93;;;5.38;;
42194;SDS011;27863;49.440;11.102;2023-07-24T00:56:47;8.95;;;5.68;;
42194;SDS011;27863;49.440;11.102;2023-07-24T00:59:48;6.00;;;5.40;;
42194;SDS011;27863;49.440;11.102;2023-07-24T01:02:48;6.43;;;5.72;;
42194;SDS011;27863;49.440;11.102;2023-07-24T01:05:49;6.20;;;5.60;;
42194;SDS011;27863;49.440;11.102;2023-07-24T01:08:49;9.45;;;5.65;;
42194;SDS011;27863;49.440;11.102;2023-07-24T01:11:51;5.55;;;5.05;;
42194;SDS011;27863;49.440;11.102;2023-07-24T01:15:09;6.53;;;5.93;;
42194;SDS011;27863;49.440;11.102;2023-07-24T01:18:14;6.88;;;5.82;;
42194;SDS011;27863;49.440;11.102;2023-07-24T01:21:17;6.60;;;5.88;;
42194;SDS011;27863;49.440;11.102;2023-07-24T01:24:23;6.57;;;5.82;;
42194;SDS011;27863;49.440;11.102;2023-07-24T01:27:30;9.90;;;6.07;;
42194;SDS011;27863;49.440;11.102;2023-07-24T01:30:31;6.80;;;6.10;;
42194;SDS011;27863;49.440;11.102;2023-07-24T01:33:31;7.07;;;6.03;;
42194;SDS011;27863;49.440;11.102;2023-07-24T01:36:35;6.82;;;6.22;;
42194;SDS011;27863;49.440;11.102;2023-07-24T01:39:35;6.30;;;5.70;;
42194;SDS011;27863;49.440;11.102;2023-07-24T01:42:36;6.03;;;5.25;;
42194;SDS011;27863;49.440;11.102;2023-07-24T01:45:37;6.55;;;5.53;;
42194;SDS011;27863;49.440;11.102;2023-07-24T01:48:37;7.07;;;6.03;;
42194;SDS011;27863;49.440;11.102;2023-07-24T01:51:38;7.72;;;6.32;;
42194;SDS011;27863;49.440;11.102;2023-07-24T01:54:38;6.68;;;5.75;;
42194;SDS011;27863;49.440;11.102;2023-07-24T01:57:39;7.60;;;6.80;;
42194;SDS011;27863;49.440;11.102;2023-07-24T02:00:39;6.18;;;5.65;;
42194;SDS011;27863;49.440;11.102;2023-07-24T02:03:40;6.47;;;5.90;;
42194;SDS011;27863;49.440;11.102;2023-07-24T02:06:40;7.40;;;6.70;;
42194;SDS011;27863;49.440;11.102;2023-07-24T02:09:41;7.80;;;7.10;;
42194;SDS011;27863;49.440;11.102;2023-07-24T02:12:42;7.20;;;6.57;;
42194;SDS011;27863;49.440;11.102;2023-07-24T02:15:43;7.72;;;6.93;;
42194;SDS011;27863;49.440;11.102;2023-07-24T02:18:45;7.18;;;6.47;;
42194;SDS011;27863;49.440;11.102;2023-07-24T02:21:46;6.32;;;5.75;;
42194;SDS011;27863;49.440;11.102;2023-07-24T02:24:46;6.55;;;6.03;;
42194;SDS011;27863;49.440;11.102;2023-07-24T02:27:47;7.28;;;5.82;;
42194;SDS011;27863;49.440;11.102;2023-07-24T02:30:47;7.38;;;6.30;;
42194;SDS011;27863;49.440;11.102;2023-07-24T02:33:48;7.10;;;6.50;;
42194;SDS011;27863;49.440;11.102;2023-07-24T02:36:48;6.78;;;6.00;;
42194;SDS011;27863;49.440;11.102;2023-07-24T02:39:49;6.90;;;6.20;;
42194;SDS011;27863;49.440;11.102;2023-07-24T02:42:49;6.85;;;5.85;;
42194;SDS011;27863;49.440;11.102;2023-07-24T02:45:50;6.97;;;6.38;;
42194;SDS011;27863;49.440;11.102;2023-07-24T02:48:52;6.80;;;6.20;;
42194;SDS011;27863;49.440;11.102;2023-07-24T02:51:53;6.88;;;6.05;;
42194;SDS011;27863;49.440;11.102;2023-07-24T02:54:54;7.28;;;6.57;;
42194;SDS011;27863;49.440;11.102;2023-07-24T02:57:54;9.07;;;6.38;;
42194;SDS011;27863;49.440;11.102;2023-07-24T03:01:02;9.52;;;6.88;;
42194;SDS011;27863;49.440;11.102;2023-07-24T03:04:04;8.55;;;6.22;;
42194;SDS011;27863;49.440;11.102;2023-07-24T03:07:06;7.25;;;6.55;;
42194;SDS011;27863;49.440;11.102;2023-07-24T03:10:06;6.85;;;5.97;;
42194;SDS011;27863;49.440;11.102;2023-07-24T03:13:08;7.28;;;6.07;;
42194;SDS011;27863;49.440;11.102;2023-07-24T03:16:08;6.75;;;6.05;;
42194;SDS011;27863;49.440;11.102;2023-07-24T03:19:09;7.22;;;6.53;;
42194;SDS011;27863;49.440;11.102;2023-07-24T03:22:09;5.57;;;5.07;;
42194;SDS011;27863;49.440;11.102;2023-07-24T03:25:11;6.82;;;6.20;;
42194;SDS011;27863;49.440;11.102;2023-07-24T03:28:11;8.13;;;6.60;;
42194;SDS011;27863;49.440;11.102;2023-07-24T03:31:12;6.13;;;5.53;;
42194;SDS011;27863;49.440;11.102;2023-07-24T03:34:12;7.70;;;7.00;;
42194;SDS011;27863;49.440;11.102;2023-07-24T03:37:13;9.27;;;6.45;;
42194;SDS011;27863;49.440;11.102;2023-07-24T03:40:14;7.72;;;6.93;;
42194;SDS011;27863;49.440;11.102;2023-07-24T03:43:15;8.23;;;6.88;;
42194;SDS011;27863;49.440;11.102;2023-07-24T03:46:16;6.53;;;5.90;;
42194;SDS011;27863;49.440;11.102;2023-07-24T03:49:16;7.43;;;6.72;;
42194;SDS011;27863;49.440;11.102;2023-07-24T03:52:17;7.20;;;6.50;;
42194;SDS011;27863;49.440;11.102;2023-07-24T03:55:17;7.43;;;6.72;;
42194;SDS011;27863;49.440;11.102;2023-07-24T03:58:18;7.00;;;6.30;;
42194;SDS011;27863;49.440;11.102;2023-07-24T04:01:18;7.90;;;6.82;;
42194;SDS011;27863;49.440;11.102;2023-07-24T04:04:19;7.82;;;6.70;;
42194;SDS011;27863;49.440;11.102;2023-07-24T04:07:20;7.45;;;6.75;;
42194;SDS011;27863;49.440;11.102;2023-07-24T04:10:21;8.30;;;7.50;;
42194;SDS011;27863;49.440;11.102;2023-07-24T04:13:21;7.00;;;6.22;;
42194;SDS011;27863;49.440;11.102;2023-07-24T04:16:22;7.88;;;6.50;;
42194;SDS011;27863;49.440;11.102;2023-07-24T04:19:23;7.55;;;6.45;;
42194;SDS011;27863;49.440;11.102;2023-07-24T04:22:23;9.00;;;6.60;;
42194;SDS011;27863;49.440;11.102;2023-07-24T04:25:24;7.63;;;6.93;;
42194;SDS011;27863;49.440;11.102;2023-07-24T04:28:24;7.03;;;6.32;;
42194;SDS011;27863;49.440;11.102;2023-07-24T04:31:25;7.97;;;7.18;;
42194;SDS011;27863;49.440;11.102;2023-07-24T04:34:26;7.88;;;6.93;;
42194;SDS011;27863;49.440;11.102;2023-07-24T04:37:26;7.53;;;6.78;;
42194;SDS011;27863;49.440;11.102;2023-07-24T04:40:27;7.07;;;6.47;;
42194;SDS011;27863;49.440;11.102;2023-07-24T04:43:28;6.68;;;6.07;;
42194;SDS011;27863;49.440;11.102;2023-07-24T04:46:31;6.47;;;5.88;;
42194;SDS011;27863;49.440;11.102;2023-07-24T04:49:32;7.47;;;6.72;;
42194;SDS011;27863;49.440;11.102;2023-07-24T04:52:33;7.70;;;7.00;;
42194;SDS011;27863;49.440;11.102;2023-07-24T04:55:33;6.95;;;6.25;;
42194;SDS011;27863;49.440;11.102;2023-07-24T04:58:34;9.48;;;6.95;;
42194;SDS011;27863;49.440;11.102;2023-07-24T05:01:34;6.95;;;6.35;;
42194;SDS011;27863;49.440;11.102;2023-07-24T05:04:35;7.00;;;6.30;;
42194;SDS011;27863;49.440;11.102;2023-07-24T05:07:35;8.82;;;7.85;;
42194;SDS011;27863;49.440;11.102;2023-07-24T05:10:36;7.40;;;6.70;;
42194;SDS011;27863;49.440;11.102;2023-07-24T05:13:36;7.78;;;6.63;;
42194;SDS011;27863;49.440;11.102;2023-07-24T05:16:37;7.30;;;6.63;;
42194;SDS011;27863;49.440;11.102;2023-07-24T05:19:37;7.40;;;6.70;;
42194;SDS011;27863;49.440;11.102;2023-07-24T05:22:38;8.10;;;6.07;;
42194;SDS011;27863;49.440;11.102;2023-07-24T05:25:39;7.32;;;6.63;;
42194;SDS011;27863;49.440;11.102;2023-07-24T05:28:39;7.90;;;7.05;;
42194;SDS011;27863;49.440;11.102;2023-07-24T05:31:40;8.20;;;7.47;;
42194;SDS011;27863;49.440;11.102;2023-07-24T05:34:40;7.05;;;6.35;;
42194;SDS011;27863;49.440;11.102;2023-07-24T05:37:41;6.10;;;5.20;;
42194;SDS011;27863;49.440;11.102;2023-07-24T05:40:41;5.78;;;5.28;;
42194;SDS011;27863;49.440;11.102;2023-07-24T05:43:42;6.72;;;6.03;;
42194;SDS011;27863;49.440;11.102;2023-07-24T05:46:42;7.20;;;6.53;;
42194;SDS011;27863;49.440;11.102;2023-07-24T05:49:43;7.57;;;6.88;;
42194;SDS011;27863;49.440;11.102;2023-07-24T05:52:43;7.75;;;6.43;;
42194;SDS011;27863;49.440;11.102;2023-07-24T05:55:44;7.55;;;6.85;;
42194;SDS011;27863;49.440;11.102;2023-07-24T05:58:44;7.28;;;6.68;;
42194;SDS011;27863;49.440;11.102;2023-07-24T06:01:45;6.60;;;6.10;;
42194;SDS011;27863;49.440;11.102;2023-07-24T06:04:45;7.20;;;6.50;;
42194;SDS011;27863;49.440;11.102;2023-07-24T06:07:47;7.22;;;6.47;;
42194;SDS011;27863;49.440;11.102;2023-07-24T06:10:47;7.78;;;7.13;;
42194;SDS011;27863;49.440;11.102;2023-07-24T06:13:48;7.97;;;7.18;;
42194;SDS011;27863;49.440;11.102;2023-07-24T06:16:49;7.82;;;7.15;;
42194;SDS011;27863;49.440;11.102;2023-07-24T06:19:50;7.70;;;7.00;;
42194;SDS011;27863;49.440;11.102;2023-07-24T06:22:50;7.43;;;6.82;;
42194;SDS011;27863;49.440;11.102;2023-07-24T06:25:51;7.63;;;6.63;;
42194;SDS011;27863;49.440;11.102;2023-07-24T06:28:53;7.75;;;6.95;;
42194;SDS011;27863;49.440;11.102;2023-07-24T06:31:53;7.55;;;6.70;;
42194;SDS011;27863;49.440;11.102;2023-07-24T06:34:54;7.18;;;6.40;;
42194;SDS011;27863;49.440;11.102;2023-07-24T06:37:54;7.00;;;6.30;;
42194;SDS011;27863;49.440;11.102;2023-07-24T06:40:55;6.55;;;5.95;;
42194;SDS011;27863;49.440;11.102;2023-07-24T06:43:55;6.22;;;5.70;;
42194;SDS011;27863;49.440;11.102;2023-07-24T06:46:56;6.95;;;6.35;;
42194;SDS011;27863;49.440;11.102;2023-07-24T06:49:56;6.68;;;5.97;;
42194;SDS011;27863;49.440;11.102;2023-07-24T06:52:57;7.03;;;6.43;;
42194;SDS011;27863;49.440;11.102;2023-07-24T06:55:58;6.93;;;6.40;;
42194;SDS011;27863;49.440;11.102;2023-07-24T06:58:58;7.63;;;6.88;;
42194;SDS011;27863;49.440;11.102;2023-07-24T07:01:59;7.47;;;6.78;;
42194;SDS011;27863;49.440;11.102;2023-07-24T07:04:59;7.05;;;6.45;;
42194;SDS011;27863;49.440;11.102;2023-07-24T07:08:00;7.50;;;6.72;;
42194;SDS011;27863;49.440;11.102;2023-07-24T07:11:00;7.55;;;6.75;;
42194;SDS011;27863;49.440;11.102;2023-07-24T07:14:01;7.30;;;6.70;;
42194;SDS011;27863;49.440;11.102;2023-07-24T07:17:02;7.45;;;6.68;;
42194;SDS011;27863;49.440;11.102;2023-07-24T07:20:03;6.82;;;6.03;;
42194;SDS011;27863;49.440;11.102;2023-07-24T07:23:04;9.18;;;6.30;;
42194;SDS011;27863;49.440;11.102;2023-07-24T07:26:05;7.70;;;7.00;;
42194;SDS011;27863;49.440;11.102;2023-07-24T07:29:05;7.32;;;6.72;;
42194;SDS011;27863;49.440;11.102;2023-07-24T07:32:06;8.10;;;6.43;;
42194;SDS011;27863;49.440;11.102;2023-07-24T07:35:07;7.93;;;7.22;;
42194;SDS011;27863;49.440;11.102;2023-07-24T07:38:08;8.35;;;6.13;;
42194;SDS011;27863;49.440;11.102;2023-07-24T07:41:09;7.07;;;6.10;;
42194;SDS011;27863;49.440;11.102;2023-07-24T07:44:09;6.60;;;6.00;;
42194;SDS011;27863;49.440;11.102;2023-07-24T07:47:10;7.32;;;6.30;;
42194;SDS011;27863;49.440;11.102;2023-07-24T07:50:10;7.07;;;6.32;;
42194;SDS011;27863;49.440;11.102;2023-07-24T07:53:11;7.07;;;6.47;;
42194;SDS011;27863;49.440;11.102;2023-07-24T07:56:13;6.72;;;6.15;;
42194;SDS011;27863;49.440;11.102;2023-07-24T07:59:14;7.30;;;6.70;;
42194;SDS011;27863;49.440;11.102;2023-07-24T08:02:14;7.82;;;7.13;;
42194;SDS011;27863;49.440;11.102;2023-07-24T08:05:15;7.07;;;6.43;;
42194;SDS011;27863;49.440;11.102;2023-07-24T08:08:16;6.60;;;6.00;;
42194;SDS011;27863;49.440;11.102;2023-07-24T08:11:16;7.55;;;6.85;;
42194;SDS011;27863;49.440;11.102;2023-07-24T08:14:17;7.60;;;7.00;;
42194;SDS011;27863;49.440;11.102;2023-07-24T08:17:18;7.65;;;6.95;;
42194;SDS011;27863;49.440;11.102;2023-07-24T08:20:18;7.75;;;6.90;;
42194;SDS011;27863;49.440;11.102;2023-07-24T08:23:19;9.77;;;7.13;;
42194;SDS011;27863;49.440;11.102;2023-07-24T08:26:20;7.53;;;6.78;;
42194;SDS011;27863;49.440;11.102;2023-07-24T08:29:21;7.90;;;7.20;;
42194;SDS011;27863;49.440;11.102;2023-07-24T08:32:21;7.35;;;6.75;;
42194;SDS011;27863;49.440;11.102;2023-07-24T08:35:22;7.65;;;6.95;;
42194;SDS011;27863;49.440;11.102;2023-07-24T08:38:22;7.10;;;6.50;;
42194;SDS011;27863;49.440;11.102;2023-07-24T08:41:24;7.20;;;6.50;;
42194;SDS011;27863;49.440;11.102;2023-07-24T08:44:25;7.85;;;7.00;;
42194;SDS011;27863;49.440;11.102;2023-07-24T08:47:28;9.90;;;7.22;;
42194;SDS011;27863;49.440;11.102;2023-07-24T08:50:29;8.88;;;7.85;;
42194;SDS011;27863;49.440;11.102;2023-07-24T08:53:30;7.30;;;6.65;;
42194;SDS011;27863;49.440;11.102;2023-07-24T08:56:38;9.05;;;6.97;;
42194;SDS011;27863;49.440;11.102;2023-07-24T08:59:47;8.65;;;7.82;;
42194;SDS011;27863;49.440;11.102;2023-07-24T09:02:48;9.63;;;8.05;;
42194;SDS011;27863;49.440;11.102;2023-07-24T09:05:49;8.20;;;7.40;;
42194;SDS011;27863;49.440;11.102;2023-07-24T09:08:53;9.85;;;6.95;;
42194;SDS011;27863;49.440;11.102;2023-07-24T09:11:54;7.68;;;7.03;;
42194;SDS011;27863;49.440;11.102;2023-07-24T09:15:02;8.07;;;7.38;;
42194;SDS011;27863;49.440;11.102;2023-07-24T09:18:03;7.88;;;7.07;;
42194;SDS011;27863;49.440;11.102;2023-07-24T09:21:03;8.65;;;7.80;;
42194;SDS011;27863;49.440;11.102;2023-07-24T09:24:13;9.70;;;8.07;;
42194;SDS011;27863;49.440;11.102;2023-07-24T09:27:15;8.43;;;7.72;;
42194;SDS011;27863;49.440;11.102;2023-07-24T09:30:15;8.57;;;7.78;;
42194;SDS011;27863;49.440;11.102;2023-07-24T09:33:17;9.43;;;8.50;;
42194;SDS011;27863;49.440;11.102;2023-07-24T09:36:17;7.97;;;7.20;;
42194;SDS011;27863;49.440;11.102;2023-07-24T09:39:27;8.07;;;7.35;;
42194;SDS011;27863;49.440;11.102;2023-07-24T09:42:32;10.38;;;7.25;;
42194;SDS011;27863;49.440;11.102;2023-07-24T09:45:34;13.75;;;7.38;;
42194;SDS011;27863;49.440;11.102;2023-07-24T09:48:35;7.72;;;7.05;;
42194;SDS011;27863;49.440;11.102;2023-07-24T09:51:37;7.43;;;6.72;;
42194;SDS011;27863;49.440;11.102;2023-07-24T09:54:39;8.73;;;7.95;;
42194;SDS011;27863;49.440;11.102;2023-07-24T09:57:45;7.18;;;6.63;;
42194;SDS011;27863;49.440;11.102;2023-07-24T10:00:47;8.32;;;7.38;;
42194;SDS011;27863;49.440;11.102;2023-07-24T10:03:49;8.73;;;7.82;;
42194;SDS011;27863;49.440;11.102;2023-07-24T10:06:50;8.60;;;7.82;;
42194;SDS011;27863;49.440;11.102;2023-07-24T10:09:51;9.05;;;8.20;;
42194;SDS011;27863;49.440;11.102;2023-07-24T10:12:52;9.57;;;8.40;;
42194;SDS011;27863;49.440;11.102;2023-07-24T10:15:53;8.13;;;7.43;;
42194;SDS011;27863;49.440;11.102;2023-07-24T10:18:53;8.25;;;7.45;;
42194;SDS011;27863;49.440;11.102;2023-07-24T10:21:54;8.50;;;7.75;;
42194;SDS011;27863;49.440;11.102;2023-07-24T10:24:55;7.53;;;6.93;;
42194;SDS011;27863;49.440;11.102;2023-07-24T10:27:55;10.15;;;8.02;;
42194;SDS011;27863;49.440;11.102;2023-07-24T10:30:56;6.97;;;6.38;;
42194;SDS011;27863;49.440;11.102;2023-07-24T10:34:05;10.77;;;7.45;;
42194;SDS011;27863;49.440;11.102;2023-07-24T10:37:07;7.85;;;7.15;;
42194;SDS011;27863;49.440;11.102;2023-07-24T10:40:18;6.65;;;6.15;;
42194;SDS011;27863;49.440;11.102;2023-07-24T10:43:19;9.60;;;7.32;;
42194;SDS011;27863;49.440;11.102;2023-07-24T10:46:23;7.63;;;6.93;;
42194;SDS011;27863;49.440;11.102;2023-07-24T10:49:25;7.78;;;7.07;;
42194;SDS011;27863;49.440;11.102;2023-07-24T10:52:29;7.78;;;6.97;;
42194;SDS011;27863;49.440;11.102;2023-07-24T10:55:33;8.05;;;7.30;;
42194;SDS011;27863;49.440;11.102;2023-07-24T10:58:33;8.40;;;7.70;;
42194;SDS011;27863;49.440;11.102;2023-07-24T11:01:35;8.40;;;7.60;;
42194;SDS011;27863;49.440;11.102;2023-07-24T11:04:36;8.82;;;8.02;;
42194;SDS011;27863;49.440;11.102;2023-07-24T11:07:36;8.05;;;7.35;;
42194;SDS011;27863;49.440;11.102;2023-07-24T11:10:37;8.85;;;8.05;;
42194;SDS011;27863;49.440;11.102;2023-07-24T11:13:37;9.15;;;8.25;;
42194;SDS011;27863;49.440;11.102;2023-07-24T11:16:47;7.97;;;7.28;;
42194;SDS011;27863;49.440;11.102;2023-07-24T11:19:48;11.15;;;8.15;;
42194;SDS011;27863;49.440;11.102;2023-07-24T11:22:49;8.90;;;8.10;;
42194;SDS011;27863;49.440;11.102;2023-07-24T11:25:50;9.27;;;8.38;;
42194;SDS011;27863;49.440;11.102;2023-07-24T11:28:52;9.32;;;8.52;;
42194;SDS011;27863;49.440;11.102;2023-07-24T11:31:54;9.10;;;8.30;;
42194;SDS011;27863;49.440;11.102;2023-07-24T11:34:54;9.95;;;8.05;;
42194;SDS011;27863;49.440;11.102;2023-07-24T11:37:55;9.27;;;7.93;;
42194;SDS011;27863;49.440;11.102;2023-07-24T11:40:56;8.32;;;7.63;;
42194;SDS011;27863;49.440;11.102;2023-07-24T11:43:57;7.82;;;7.15;;
42194;SDS011;27863;49.440;11.102;2023-07-24T11:47:01;7.93;;;7.22;;
42194;SDS011;27863;49.440;11.102;2023-07-24T11:50:03;10.00;;;8.68;;
42194;SDS011;27863;49.440;11.102;2023-07-24T11:53:04;9.60;;;8.15;;
42194;SDS011;27863;49.440;11.102;2023-07-24T11:56:12;10.32;;;7.72;;
42194;SDS011;27863;49.440;11.102;2023-07-24T11:59:14;6.45;;;5.85;;
42194;SDS011;27863;49.440;11.102;2023-07-24T12:02:15;6.38;;;5.28;;
42194;SDS011;27863;49.440;11.102;2023-07-24T12:05:16;6.40;;;5.80;;
42194;SDS011;27863;49.440;11.102;2023-07-24T12:08:17;5.82;;;4.28;;
42194;SDS011;27863;49.440;11.102;2023-07-24T12:11:20;4.70;;;4.30;;
42194;SDS011;27863;49.440;11.102;2023-07-24T12:14:20;3.75;;;3.13;;
42194;SDS011;27863;49.440;11.102;2023-07-24T12:17:21;3.47;;;3.17;;
42194;SDS011;27863;49.440;11.102;2023-07-24T12:20:21;4.85;;;3.97;;
42194;SDS011;27863;49.440;11.102;2023-07-24T12:23:22;4.68;;;3.75;;
42194;SDS011;27863;49.440;11.102;2023-07-24T12:26:22;4.22;;;3.83;;
42194;SDS011;27863;49.440;11.102;2023-07-24T12:29:25;3.63;;;3.33;;
42194;SDS011;27863;49.440;11.102;2023-07-24T12:32:26;4.68;;;4.20;;
42194;SDS011;27863;49.440;11.102;2023-07-24T12:35:27;5.00;;;4.47;;
42194;SDS011;27863;49.440;11.102;2023-07-24T12:38:27;5.20;;;4.38;;
42194;SDS011;27863;49.440;11.102;2023-07-24T12:41:28;4.80;;;4.32;;
42194;SDS011;27863;49.440;11.102;2023-07-24T12:44:28;4.70;;;4.30;;
42194;SDS011;27863;49.440;11.102;2023-07-24T12:47:29;4.40;;;3.97;;
42194;SDS011;27863;49.440;11.102;2023-07-24T12:50:30;6.53;;;4.85;;
42194;SDS011;27863;49.440;11.102;2023-07-24T12:53:31;5.28;;;4.78;;
42194;SDS011;27863;49.440;11.102;2023-07-24T12:56:31;5.05;;;4.40;;
42194;SDS011;27863;49.440;11.102;2023-07-24T12:59:32;5.38;;;4.65;;
42194;SDS011;27863;49.440;11.102;2023-07-24T13:02:32;6.63;;;5.80;;
42194;SDS011;27863;49.440;11.102;2023-07-24T13:05:33;5.43;;;4.93;;
42194;SDS011;27863;49.440;11.102;2023-07-24T13:08:34;6.28;;;5.68;;
42194;SDS011;27863;49.440;11.102;2023-07-24T13:11:34;5.68;;;5.18;;
42194;SDS011;27863;49.440;11.102;2023-07-24T13:14:35;6.70;;;6.10;;
42194;SDS011;27863;49.440;11.102;2023-07-24T13:17:35;6.30;;;5.60;;
42194;SDS011;27863;49.440;11.102;2023-07-24T13:20:37;6.40;;;5.32;;
42194;SDS011;27863;49.440;11.102;2023-07-24T13:23:37;5.68;;;5.13;;
42194;SDS011;27863;49.440;11.102;2023-07-24T13:26:38;10.80;;;5.53;;
42194;SDS011;27863;49.440;11.102;2023-07-24T13:29:40;5.72;;;5.18;;
42194;SDS011;27863;49.440;11.102;2023-07-24T13:32:40;6.13;;;5.63;;
42194;SDS011;27863;49.440;11.102;2023-07-24T13:35:41;5.25;;;4.85;;
42194;SDS011;27863;49.440;11.102;2023-07-24T13:38:41;6.70;;;5.00;;
42194;SDS011;27863;49.440;11.102;2023-07-24T13:41:42;6.20;;;5.60;;
42194;SDS011;27863;49.440;11.102;2023-07-24T13:44:43;4.70;;;4.28;;
42194;SDS011;27863;49.440;11.102;2023-07-24T13:47:43;5.65;;;5.15;;
42194;SDS011;27863;49.440;11.102;2023-07-24T13:50:44;5.90;;;4.93;;
42194;SDS011;27863;49.440;11.102;2023-07-24T13:53:44;4.90;;;4.40;;
42194;SDS011;27863;49.440;11.102;2023-07-24T13:56:48;6.30;;;4.82;;
42194;SDS011;27863;49.440;11.102;2023-07-24T13:59:49;5.03;;;4.63;;
42194;SDS011;27863;49.440;11.102;2023-07-24T14:02:50;4.88;;;4.47;;
42194;SDS011;27863;49.440;11.102;2023-07-24T14:05:50;5.28;;;4.50;;
42194;SDS011;27863;49.440;11.102;2023-07-24T14:08:52;6.28;;;4.07;;
42194;SDS011;27863;49.440;11.102;2023-07-24T14:11:52;5.22;;;4.82;;
42194;SDS011;27863;49.440;11.102;2023-07-24T14:14:53;4.47;;;4.07;;
42194;SDS011;27863;49.440;11.102;2023-07-24T14:17:53;4.60;;;3.90;;
42194;SDS011;27863;49.440;11.102;2023-07-24T14:20:54;5.25;;;4.07;;
42194;SDS011;27863;49.440;11.102;2023-07-24T14:23:56;5.15;;;4.60;;
42194;SDS011;27863;49.440;11.102;2023-07-24T14:26:57;4.25;;;3.85;;
42194;SDS011;27863;49.440;11.102;2023-07-24T14:29:58;5.35;;;3.80;;
42194;SDS011;27863;49.440;11.102;2023-07-24T14:32:58;8.02;;;6.03;;
42194;SDS011;27863;49.440;11.102;2023-07-24T14:35:59;4.95;;;4.50;;
42194;SDS011;27863;49.440;11.102;2023-07-24T14:39:00;4.60;;;4.20;;
42194;SDS011;27863;49.440;11.102;2023-07-24T14:42:00;5.25;;;4.75;;
42194;SDS011;27863;49.440;11.102;2023-07-24T14:45:01;3.95;;;3.55;;
42194;SDS011;27863;49.440;11.102;2023-07-24T14:48:02;6.00;;;4.13;;
42194;SDS011;27863;49.440;11.102;2023-07-24T14:51:03;4.32;;;3.92;;
42194;SDS011;27863;49.440;11.102;2023-07-24T14:54:03;3.72;;;3.42;;
42194;SDS011;27863;49.440;11.102;2023-07-24T14:57:04;4.80;;;3.55;;
42194;SDS011;27863;49.440;11.102;2023-07-24T15:00:06;3.88;;;3.53;;
42194;SDS011;27863;49.440;11.102;2023-07-24T15:03:08;4.03;;;3.63;;
42194;SDS011;27863;49.440;11.102;2023-07-24T15:06:09;3.70;;;3.40;;
42194;SDS011;27863;49.440;11.102;2023-07-24T15:09:09;3.88;;;3.55;;
42194;SDS011;27863;49.440;11.102;2023-07-24T15:12:11;4.32;;;3.92;;
42194;SDS011;27863;49.440;11.102;2023-07-24T15:15:11;3.60;;;3.30;;
42194;SDS011;27863;49.440;11.102;2023-07-24T15:18:12;3.72;;;3.40;;
42194;SDS011;27863;49.440;11.102;2023-07-24T15:21:12;3.65;;;3.35;;
42194;SDS011;27863;49.440;11.102;2023-07-24T15:24:13;3.55;;;3.22;;
42194;SDS011;27863;49.440;11.102;2023-07-24T15:27:17;4.75;;;3.63;;
42194;SDS011;27863;49.440;11.102;2023-07-24T15:30:18;4.28;;;3.55;;
42194;SDS011;27863;49.440;11.102;2023-07-24T15:33:19;3.42;;;3.13;;
42194;SDS011;27863;49.440;11.102;2023-07-24T15:36:19;3.42;;;3.10;;
42194;SDS011;27863;49.440;11.102;2023-07-24T15:39:21;3.72;;;3.22;;
42194;SDS011;27863;49.440;11.102;2023-07-24T15:42:21;4.03;;;3.63;;
42194;SDS011;27863;49.440;11.102;2023-07-24T15:45:23;3.78;;;3.47;;
42194;SDS011;27863;49.440;11.102;2023-07-24T15:48:24;4.43;;;4.03;;
42194;SDS011;27863;49.440;11.102;2023-07-24T15:51:25;3.95;;;3.38;;
42194;SDS011;27863;49.440;11.102;2023-07-24T15:54:26;3.90;;;3.15;;
42194;SDS011;27863;49.440;11.102;2023-07-24T15:57:26;3.75;;;2.92;;
42194;SDS011;27863;49.440;11.102;2023-07-24T16:00:27;4.18;;;3.80;;
42194;SDS011;27863;49.440;11.102;2023-07-24T16:03:28;3.67;;;3.38;;
42194;SDS011;27863;49.440;11.102;2023-07-24T16:06:28;4.43;;;3.63;;
42194;SDS011;27863;49.440;11.102;2023-07-24T16:09:29;3.63;;;3.33;;
42194;SDS011;27863;49.440;11.102;2023-07-24T16:12:29;4.25;;;3.85;;
42194;SDS011;27863;49.440;11.102;2023-07-24T16:15:30;3.97;;;3.55;;
42194;SDS011;27863;49.440;11.102;2023-07-24T16:18:31;3.70;;;3.20;;
42194;SDS011;27863;49.440;11.102;2023-07-24T16:21:33;4.20;;;3.85;;
42194;SDS011;27863;49.440;11.102;2023-07-24T16:24:33;4.63;;;4.22;;
42194;SDS011;27863;49.440;11.102;2023-07-24T16:27:34;5.07;;;3.80;;
42194;SDS011;27863;49.440;11.102;2023-07-24T16:30:35;3.85;;;3.55;;
42194;SDS011;27863;49.440;11.102;2023-07-24T16:33:35;4.32;;;3.90;;
42194;SDS011;27863;49.440;11.102;2023-07-24T16:36:36;5.72;;;4.68;;
42194;SDS011;27863;49.440;11.102;2023-07-24T16:39:37;5.35;;;4.22;;
42194;SDS011;27863;49.440;11.102;2023-07-24T16:42:38;4.05;;;3.65;;
42194;SDS011;27863;49.440;11.102;2023-07-24T16:45:39;4.28;;;3.60;;
42194;SDS011;27863;49.440;11.102;2023-07-24T16:48:40;4.63;;;4.32;;
42194;SDS011;27863;49.440;11.102;2023-07-24T16:51:41;4.50;;;4.10;;
42194;SDS011;27863;49.440;11.102;2023-07-24T16:54:42;4.95;;;4.03;;
42194;SDS011;27863;49.440;11.102;2023-07-24T16:57:42;5.43;;;4.85;;
42194;SDS011;27863;49.440;11.102;2023-07-24T17:00:44;5.32;;;4.55;;
42194;SDS011;27863;49.440;11.102;2023-07-24T17:03:45;5.70;;;3.88;;
42194;SDS011;27863;49.440;11.102;2023-07-24T17:06:45;3.97;;;3.65;;
42194;SDS011;27863;49.440;11.102;2023-07-24T17:09:46;3.95;;;3.60;;
42194;SDS011;27863;49.440;11.102;2023-07-24T17:12:46;4.22;;;3.83;;
42194;SDS011;27863;49.440;11.102;2023-07-24T17:15:47;4.95;;;3.90;;
42194;SDS011;27863;49.440;11.102;2023-07-24T17:18:48;4.00;;;3.67;;
42194;SDS011;27863;49.440;11.102;2023-07-24T17:21:54;4.72;;;3.60;;
42194;SDS011;27863;49.440;11.102;2023-07-24T17:24:54;3.72;;;3.42;;
42194;SDS011;27863;49.440;11.102;2023-07-24T17:27:55;4.18;;;3.70;;
42194;SDS011;27863;49.440;11.102;2023-07-24T17:30:55;4.32;;;3.95;;
42194;SDS011;27863;49.440;11.102;2023-07-24T17:33:56;4.07;;;3.58;;
42194;SDS011;27863;49.440;11.102;2023-07-24T17:36:58;5.18;;;3.42;;
42194;SDS011;27863;49.440;11.102;2023-07-24T17:40:02;3.80;;;3.50;;
42194;SDS011;27863;49.440;11.102;2023-07-24T17:43:04;3.88;;;3.35;;
42194;SDS011;27863;49.440;11.102;2023-07-24T17:46:05;4.97;;;4.05;;
42194;SDS011;27863;49.440;11.102;2023-07-24T17:49:06;4.28;;;3.88;;
42194;SDS011;27863;49.440;11.102;2023-07-24T17:52:06;3.90;;;3.13;;
42194;SDS011;27863;49.440;11.102;2023-07-24T17:55:09;3.47;;;3.13;;